sensor_id;sensor_type;location;lat;lon;timestamp;P1;durP1;ratioP1;P2;durP2;ratioP2
30533;SDS011;17318;52.390;9.754;2022-07-04T00:00:59;1.20;;;0.50;;
30533;SDS011;17318;52.390;9.754;2022-07-04T00:03:25;1.30;;;0.70;;
30533;SDS011;17318;52.390;9.754;2022-07-04T00:05:50;2.75;;;0.80;;
30533;SDS011;17318;52.390;9.754;2022-07-04T00:08:16;3.10;;;0.70;;
30533;SDS011;17318;52.390;9.754;2022-07-04T00:10:42;1.42;;;0.77;;
30533;SDS011;17318;52.390;9.754;2022-07-04T00:13:08;1.00;;;0.60;;
30533;SDS011;17318;52.390;9.754;2022-07-04T00:15:33;0.50;;;0.47;;
30533;SDS011;17318;52.390;9.754;2022-07-04T00:17:59;4.85;;;0.60;;
30533;SDS011;17318;52.390;9.754;2022-07-04T00:20:25;1.75;;;0.70;;
30533;SDS011;17318;52.390;9.754;2022-07-04T00:22:50;1.42;;;0.40;;
30533;SDS011;17318;52.390;9.754;2022-07-04T00:25:16;2.08;;;0.70;;
30533;SDS011;17318;52.390;9.754;2022-07-04T00:27:42;3.65;;;0.55;;
30533;SDS011;17318;52.390;9.754;2022-07-04T00:30:08;1.40;;;0.70;;
30533;SDS011;17318;52.390;9.754;2022-07-04T00:32:34;1.58;;;0.75;;
30533;SDS011;17318;52.390;9.754;2022-07-04T00:34:59;2.53;;;0.70;;
30533;SDS011;17318;52.390;9.754;2022-07-04T00:37:25;3.05;;;0.93;;
30533;SDS011;17318;52.390;9.754;2022-07-04T00:39:51;1.15;;;0.68;;
30533;SDS011;17318;52.390;9.754;2022-07-04T00:42:16;1.35;;;0.70;;
30533;SDS011;17318;52.390;9.754;2022-07-04T00:44:42;2.63;;;0.85;;
30533;SDS011;17318;52.390;9.754;2022-07-04T00:47:08;1.63;;;0.77;;
30533;SDS011;17318;52.390;9.754;2022-07-04T00:49:34;4.05;;;0.90;;
30533;SDS011;17318;52.390;9.754;2022-07-04T00:52:00;2.17;;;0.80;;
30533;SDS011;17318;52.390;9.754;2022-07-04T00:54:29;0.75;;;0.35;;
30533;SDS011;17318;52.390;9.754;2022-07-04T00:56:56;2.80;;;0.70;;
30533;SDS011;17318;52.390;9.754;2022-07-04T00:59:23;0.77;;;0.60;;
30533;SDS011;17318;52.390;9.754;2022-07-04T01:01:49;0.50;;;0.43;;
30533;SDS011;17318;52.390;9.754;2022-07-04T01:04:15;2.42;;;0.90;;
30533;SDS011;17318;52.390;9.754;2022-07-04T01:06:42;1.15;;;0.80;;
30533;SDS011;17318;52.390;9.754;2022-07-04T01:09:08;2.13;;;0.90;;
30533;SDS011;17318;52.390;9.754;2022-07-04T01:11:34;1.33;;;0.70;;
30533;SDS011;17318;52.390;9.754;2022-07-04T01:14:00;1.10;;;0.70;;
30533;SDS011;17318;52.390;9.754;2022-07-04T01:16:25;3.50;;;0.98;;
30533;SDS011;17318;52.390;9.754;2022-07-04T01:18:52;1.38;;;0.70;;
30533;SDS011;17318;52.390;9.754;2022-07-04T01:21:20;1.65;;;0.77;;
30533;SDS011;17318;52.390;9.754;2022-07-04T01:23:46;1.45;;;0.77;;
30533;SDS011;17318;52.390;9.754;2022-07-04T01:26:12;1.85;;;0.80;;
30533;SDS011;17318;52.390;9.754;2022-07-04T01:28:38;1.48;;;0.80;;
30533;SDS011;17318;52.390;9.754;2022-07-04T01:31:04;0.95;;;0.57;;
30533;SDS011;17318;52.390;9.754;2022-07-04T01:33:30;1.45;;;0.75;;
30533;SDS011;17318;52.390;9.754;2022-07-04T01:35:57;1.55;;;0.82;;
30533;SDS011;17318;52.390;9.754;2022-07-04T01:38:23;1.48;;;0.60;;
30533;SDS011;17318;52.390;9.754;2022-07-04T01:40:48;0.75;;;0.70;;
30533;SDS011;17318;52.390;9.754;2022-07-04T01:43:14;4.50;;;1.20;;
30533;SDS011;17318;52.390;9.754;2022-07-04T01:45:40;3.05;;;0.93;;
30533;SDS011;17318;52.390;9.754;2022-07-04T01:48:06;2.17;;;1.00;;
30533;SDS011;17318;52.390;9.754;2022-07-04T01:50:33;3.17;;;1.38;;
30533;SDS011;17318;52.390;9.754;2022-07-04T01:53:00;2.13;;;1.27;;
30533;SDS011;17318;52.390;9.754;2022-07-04T01:55:26;1.90;;;1.10;;
30533;SDS011;17318;52.390;9.754;2022-07-04T01:57:53;1.30;;;0.98;;
30533;SDS011;17318;52.390;9.754;2022-07-04T02:00:22;3.17;;;0.82;;
30533;SDS011;17318;52.390;9.754;2022-07-04T02:03:07;2.03;;;1.10;;
30533;SDS011;17318;52.390;9.754;2022-07-04T02:05:33;1.25;;;1.10;;
30533;SDS011;17318;52.390;9.754;2022-07-04T02:07:59;4.47;;;1.27;;
30533;SDS011;17318;52.390;9.754;2022-07-04T02:10:25;6.95;;;1.08;;
30533;SDS011;17318;52.390;9.754;2022-07-04T02:12:51;3.13;;;1.20;;
30533;SDS011;17318;52.390;9.754;2022-07-04T02:15:26;2.28;;;1.35;;
30533;SDS011;17318;52.390;9.754;2022-07-04T02:17:56;5.38;;;1.15;;
30533;SDS011;17318;52.390;9.754;2022-07-04T02:20:22;3.78;;;1.30;;
30533;SDS011;17318;52.390;9.754;2022-07-04T02:22:49;4.28;;;1.65;;
30533;SDS011;17318;52.390;9.754;2022-07-04T02:25:14;2.85;;;1.40;;
30533;SDS011;17318;52.390;9.754;2022-07-04T02:27:40;4.15;;;1.60;;
30533;SDS011;17318;52.390;9.754;2022-07-04T02:30:07;2.47;;;1.50;;
30533;SDS011;17318;52.390;9.754;2022-07-04T02:32:34;2.30;;;1.42;;
30533;SDS011;17318;52.390;9.754;2022-07-04T02:35:00;3.53;;;1.80;;
30533;SDS011;17318;52.390;9.754;2022-07-04T02:37:26;4.47;;;1.95;;
30533;SDS011;17318;52.390;9.754;2022-07-04T02:39:52;5.03;;;1.98;;
30533;SDS011;17318;52.390;9.754;2022-07-04T02:42:18;4.53;;;1.80;;
30533;SDS011;17318;52.390;9.754;2022-07-04T02:44:44;2.40;;;1.60;;
30533;SDS011;17318;52.390;9.754;2022-07-04T02:47:10;3.60;;;1.77;;
30533;SDS011;17318;52.390;9.754;2022-07-04T02:49:36;5.65;;;2.13;;
30533;SDS011;17318;52.390;9.754;2022-07-04T02:52:02;3.22;;;2.10;;
30533;SDS011;17318;52.390;9.754;2022-07-04T02:54:28;2.50;;;1.33;;
30533;SDS011;17318;52.390;9.754;2022-07-04T02:56:54;7.88;;;2.17;;
30533;SDS011;17318;52.390;9.754;2022-07-04T02:59:19;3.20;;;1.45;;
30533;SDS011;17318;52.390;9.754;2022-07-04T03:01:45;4.75;;;1.45;;
30533;SDS011;17318;52.390;9.754;2022-07-04T03:04:11;3.47;;;1.60;;
30533;SDS011;17318;52.390;9.754;2022-07-04T03:06:36;3.17;;;1.50;;
30533;SDS011;17318;52.390;9.754;2022-07-04T03:09:04;3.88;;;2.05;;
30533;SDS011;17318;52.390;9.754;2022-07-04T03:11:31;3.78;;;2.30;;
30533;SDS011;17318;52.390;9.754;2022-07-04T03:13:56;3.22;;;2.20;;
30533;SDS011;17318;52.390;9.754;2022-07-04T03:16:22;4.78;;;1.85;;
30533;SDS011;17318;52.390;9.754;2022-07-04T03:18:48;1.90;;;1.70;;
30533;SDS011;17318;52.390;9.754;2022-07-04T03:21:13;3.10;;;2.08;;
30533;SDS011;17318;52.390;9.754;2022-07-04T03:23:39;7.38;;;2.17;;
30533;SDS011;17318;52.390;9.754;2022-07-04T03:26:05;3.13;;;1.80;;
30533;SDS011;17318;52.390;9.754;2022-07-04T03:28:30;3.67;;;1.60;;
30533;SDS011;17318;52.390;9.754;2022-07-04T03:30:56;4.40;;;1.92;;
30533;SDS011;17318;52.390;9.754;2022-07-04T03:33:23;3.95;;;1.90;;
30533;SDS011;17318;52.390;9.754;2022-07-04T03:35:48;6.15;;;2.03;;
30533;SDS011;17318;52.390;9.754;2022-07-04T03:38:14;4.18;;;2.00;;
30533;SDS011;17318;52.390;9.754;2022-07-04T03:40:40;5.70;;;1.58;;
30533;SDS011;17318;52.390;9.754;2022-07-04T03:43:05;5.90;;;2.05;;
30533;SDS011;17318;52.390;9.754;2022-07-04T03:45:32;5.05;;;2.40;;
30533;SDS011;17318;52.390;9.754;2022-07-04T03:47:57;4.55;;;2.53;;
30533;SDS011;17318;52.390;9.754;2022-07-04T03:50:23;4.75;;;2.65;;
30533;SDS011;17318;52.390;9.754;2022-07-04T03:52:49;6.65;;;2.60;;
30533;SDS011;17318;52.390;9.754;2022-07-04T03:55:15;5.93;;;2.03;;
30533;SDS011;17318;52.390;9.754;2022-07-04T03:57:41;3.92;;;2.38;;
30533;SDS011;17318;52.390;9.754;2022-07-04T04:00:07;3.42;;;2.10;;
30533;SDS011;17318;52.390;9.754;2022-07-04T04:02:34;10.18;;;2.40;;
30533;SDS011;17318;52.390;9.754;2022-07-04T04:05:01;4.82;;;2.55;;
30533;SDS011;17318;52.390;9.754;2022-07-04T04:07:44;5.07;;;2.90;;
30533;SDS011;17318;52.390;9.754;2022-07-04T04:10:10;5.93;;;2.67;;
30533;SDS011;17318;52.390;9.754;2022-07-04T04:12:36;8.40;;;2.30;;
30533;SDS011;17318;52.390;9.754;2022-07-04T04:15:02;4.10;;;2.45;;
30533;SDS011;17318;52.390;9.754;2022-07-04T04:17:28;6.13;;;2.55;;
30533;SDS011;17318;52.390;9.754;2022-07-04T04:19:53;3.92;;;2.25;;
30533;SDS011;17318;52.390;9.754;2022-07-04T04:22:19;4.45;;;3.30;;
30533;SDS011;17318;52.390;9.754;2022-07-04T04:24:44;5.53;;;2.97;;
30533;SDS011;17318;52.390;9.754;2022-07-04T04:27:10;7.28;;;3.38;;
30533;SDS011;17318;52.390;9.754;2022-07-04T04:29:36;3.58;;;3.10;;
30533;SDS011;17318;52.390;9.754;2022-07-04T04:32:02;8.65;;;3.13;;
30533;SDS011;17318;52.390;9.754;2022-07-04T04:34:27;8.02;;;2.92;;
30533;SDS011;17318;52.390;9.754;2022-07-04T04:36:53;4.78;;;2.90;;
30533;SDS011;17318;52.390;9.754;2022-07-04T04:39:19;5.07;;;3.20;;
30533;SDS011;17318;52.390;9.754;2022-07-04T04:41:44;4.60;;;3.22;;
30533;SDS011;17318;52.390;9.754;2022-07-04T04:44:10;7.18;;;3.47;;
30533;SDS011;17318;52.390;9.754;2022-07-04T04:46:35;9.52;;;4.15;;
30533;SDS011;17318;52.390;9.754;2022-07-04T04:49:01;8.13;;;3.35;;
30533;SDS011;17318;52.390;9.754;2022-07-04T04:51:27;10.50;;;3.63;;
30533;SDS011;17318;52.390;9.754;2022-07-04T04:53:53;9.85;;;3.80;;
30533;SDS011;17318;52.390;9.754;2022-07-04T04:56:18;29.80;;;8.65;;
30533;SDS011;17318;52.390;9.754;2022-07-04T04:58:44;7.53;;;3.42;;
30533;SDS011;17318;52.390;9.754;2022-07-04T05:01:09;6.63;;;3.60;;
30533;SDS011;17318;52.390;9.754;2022-07-04T05:03:35;7.00;;;2.97;;
30533;SDS011;17318;52.390;9.754;2022-07-04T05:06:01;4.25;;;2.97;;
30533;SDS011;17318;52.390;9.754;2022-07-04T05:08:26;13.13;;;4.00;;
30533;SDS011;17318;52.390;9.754;2022-07-04T05:10:52;6.47;;;3.13;;
30533;SDS011;17318;52.390;9.754;2022-07-04T05:13:18;8.52;;;3.88;;
30533;SDS011;17318;52.390;9.754;2022-07-04T05:15:45;8.82;;;3.58;;
30533;SDS011;17318;52.390;9.754;2022-07-04T05:18:11;9.93;;;3.92;;
30533;SDS011;17318;52.390;9.754;2022-07-04T05:20:38;7.68;;;3.30;;
30533;SDS011;17318;52.390;9.754;2022-07-04T05:23:04;9.93;;;3.38;;
30533;SDS011;17318;52.390;9.754;2022-07-04T05:25:30;9.32;;;3.17;;
30533;SDS011;17318;52.390;9.754;2022-07-04T05:27:57;9.38;;;3.10;;
30533;SDS011;17318;52.390;9.754;2022-07-04T05:30:23;7.57;;;3.35;;
30533;SDS011;17318;52.390;9.754;2022-07-04T05:32:50;8.75;;;3.40;;
30533;SDS011;17318;52.390;9.754;2022-07-04T05:35:16;12.48;;;3.28;;
30533;SDS011;17318;52.390;9.754;2022-07-04T05:37:42;10.27;;;3.90;;
30533;SDS011;17318;52.390;9.754;2022-07-04T05:40:09;5.93;;;3.38;;
30533;SDS011;17318;52.390;9.754;2022-07-04T05:42:35;8.67;;;3.37;;
30533;SDS011;17318;52.390;9.754;2022-07-04T05:45:01;6.93;;;3.15;;
30533;SDS011;17318;52.390;9.754;2022-07-04T05:47:28;11.00;;;3.60;;
30533;SDS011;17318;52.390;9.754;2022-07-04T05:49:53;6.22;;;3.25;;
30533;SDS011;17318;52.390;9.754;2022-07-04T05:52:19;9.00;;;3.17;;
30533;SDS011;17318;52.390;9.754;2022-07-04T05:54:45;5.50;;;3.28;;
30533;SDS011;17318;52.390;9.754;2022-07-04T05:57:11;11.20;;;4.43;;
30533;SDS011;17318;52.390;9.754;2022-07-04T05:59:36;9.50;;;4.25;;
30533;SDS011;17318;52.390;9.754;2022-07-04T06:02:02;7.13;;;4.10;;
30533;SDS011;17318;52.390;9.754;2022-07-04T06:04:28;8.77;;;4.57;;
30533;SDS011;17318;52.390;9.754;2022-07-04T06:06:54;7.25;;;4.20;;
30533;SDS011;17318;52.390;9.754;2022-07-04T06:09:20;11.75;;;5.15;;
30533;SDS011;17318;52.390;9.754;2022-07-04T06:11:45;5.90;;;3.92;;
30533;SDS011;17318;52.390;9.754;2022-07-04T06:14:11;8.80;;;4.90;;
30533;SDS011;17318;52.390;9.754;2022-07-04T06:16:37;11.02;;;4.72;;
30533;SDS011;17318;52.390;9.754;2022-07-04T06:19:03;5.43;;;3.50;;
30533;SDS011;17318;52.390;9.754;2022-07-04T06:21:28;8.13;;;4.05;;
30533;SDS011;17318;52.390;9.754;2022-07-04T06:23:54;10.25;;;4.53;;
30533;SDS011;17318;52.390;9.754;2022-07-04T06:26:20;8.00;;;3.45;;
30533;SDS011;17318;52.390;9.754;2022-07-04T06:28:45;6.38;;;3.63;;
30533;SDS011;17318;52.390;9.754;2022-07-04T06:31:12;14.55;;;3.75;;
30533;SDS011;17318;52.390;9.754;2022-07-04T06:33:37;10.00;;;3.38;;
30533;SDS011;17318;52.390;9.754;2022-07-04T06:36:22;8.73;;;3.22;;
30533;SDS011;17318;52.390;9.754;2022-07-04T06:38:48;6.32;;;2.20;;
30533;SDS011;17318;52.390;9.754;2022-07-04T06:41:13;7.25;;;2.38;;
30533;SDS011;17318;52.390;9.754;2022-07-04T06:43:39;6.75;;;2.53;;
30533;SDS011;17318;52.390;9.754;2022-07-04T06:46:05;7.55;;;2.17;;
30533;SDS011;17318;52.390;9.754;2022-07-04T06:48:31;5.13;;;2.20;;
30533;SDS011;17318;52.390;9.754;2022-07-04T06:50:56;5.38;;;2.40;;
30533;SDS011;17318;52.390;9.754;2022-07-04T06:53:22;4.03;;;2.08;;
30533;SDS011;17318;52.390;9.754;2022-07-04T06:55:48;5.40;;;2.25;;
30533;SDS011;17318;52.390;9.754;2022-07-04T06:58:13;5.55;;;2.35;;
30533;SDS011;17318;52.390;9.754;2022-07-04T07:00:39;8.15;;;2.47;;
30533;SDS011;17318;52.390;9.754;2022-07-04T07:03:06;8.35;;;2.72;;
30533;SDS011;17318;52.390;9.754;2022-07-04T07:05:32;5.95;;;1.85;;
30533;SDS011;17318;52.390;9.754;2022-07-04T07:08:01;7.40;;;2.13;;
30533;SDS011;17318;52.390;9.754;2022-07-04T07:10:30;6.38;;;2.30;;
30533;SDS011;17318;52.390;9.754;2022-07-04T07:12:57;6.70;;;1.85;;
30533;SDS011;17318;52.390;9.754;2022-07-04T07:15:24;6.15;;;1.73;;
30533;SDS011;17318;52.390;9.754;2022-07-04T07:17:50;4.40;;;2.10;;
30533;SDS011;17318;52.390;9.754;2022-07-04T07:20:16;8.38;;;1.83;;
30533;SDS011;17318;52.390;9.754;2022-07-04T07:22:41;3.85;;;1.63;;
30533;SDS011;17318;52.390;9.754;2022-07-04T07:25:08;5.38;;;2.35;;
30533;SDS011;17318;52.390;9.754;2022-07-04T07:27:35;3.20;;;1.98;;
30533;SDS011;17318;52.390;9.754;2022-07-04T07:30:01;5.15;;;2.25;;
30533;SDS011;17318;52.390;9.754;2022-07-04T07:32:28;7.38;;;2.10;;
30533;SDS011;17318;52.390;9.754;2022-07-04T07:34:54;2.85;;;1.80;;
30533;SDS011;17318;52.390;9.754;2022-07-04T07:37:19;4.28;;;1.67;;
30533;SDS011;17318;52.390;9.754;2022-07-04T07:39:47;3.17;;;1.83;;
30533;SDS011;17318;52.390;9.754;2022-07-04T07:42:14;6.22;;;1.55;;
30533;SDS011;17318;52.390;9.754;2022-07-04T07:44:41;6.30;;;1.63;;
30533;SDS011;17318;52.390;9.754;2022-07-04T07:47:06;8.57;;;2.25;;
30533;SDS011;17318;52.390;9.754;2022-07-04T07:49:32;4.07;;;1.80;;
30533;SDS011;17318;52.390;9.754;2022-07-04T07:51:58;4.25;;;2.03;;
30533;SDS011;17318;52.390;9.754;2022-07-04T07:54:24;7.32;;;2.05;;
30533;SDS011;17318;52.390;9.754;2022-07-04T07:56:49;5.60;;;1.90;;
30533;SDS011;17318;52.390;9.754;2022-07-04T07:59:15;4.25;;;1.70;;
30533;SDS011;17318;52.390;9.754;2022-07-04T08:01:41;5.72;;;1.30;;
30533;SDS011;17318;52.390;9.754;2022-07-04T08:04:07;4.35;;;0.98;;
30533;SDS011;17318;52.390;9.754;2022-07-04T08:06:52;4.60;;;1.27;;
30533;SDS011;17318;52.390;9.754;2022-07-04T08:09:17;5.65;;;1.00;;
30533;SDS011;17318;52.390;9.754;2022-07-04T08:11:43;6.20;;;1.50;;
30533;SDS011;17318;52.390;9.754;2022-07-04T08:14:09;3.22;;;1.05;;
30533;SDS011;17318;52.390;9.754;2022-07-04T08:16:35;3.20;;;1.05;;
30533;SDS011;17318;52.390;9.754;2022-07-04T08:19:02;5.47;;;1.52;;
30533;SDS011;17318;52.390;9.754;2022-07-04T08:21:28;4.55;;;1.20;;
30533;SDS011;17318;52.390;9.754;2022-07-04T08:23:54;6.25;;;0.88;;
30533;SDS011;17318;52.390;9.754;2022-07-04T08:26:20;2.47;;;0.50;;
30533;SDS011;17318;52.390;9.754;2022-07-04T08:28:45;5.38;;;0.90;;
30533;SDS011;17318;52.390;9.754;2022-07-04T08:31:11;1.63;;;0.80;;
30533;SDS011;17318;52.390;9.754;2022-07-04T08:33:37;2.22;;;0.85;;
30533;SDS011;17318;52.390;9.754;2022-07-04T08:36:05;4.70;;;1.08;;
30533;SDS011;17318;52.390;9.754;2022-07-04T08:38:31;2.92;;;0.77;;
30533;SDS011;17318;52.390;9.754;2022-07-04T08:40:57;2.92;;;0.80;;
30533;SDS011;17318;52.390;9.754;2022-07-04T08:43:24;5.95;;;1.17;;
30533;SDS011;17318;52.390;9.754;2022-07-04T08:45:52;3.13;;;0.93;;
30533;SDS011;17318;52.390;9.754;2022-07-04T08:48:20;2.60;;;0.73;;
30533;SDS011;17318;52.390;9.754;2022-07-04T08:50:50;3.45;;;1.00;;
30533;SDS011;17318;52.390;9.754;2022-07-04T08:53:20;3.25;;;0.82;;
30533;SDS011;17318;52.390;9.754;2022-07-04T08:55:47;2.33;;;0.80;;
30533;SDS011;17318;52.390;9.754;2022-07-04T08:58:32;2.13;;;0.60;;
30533;SDS011;17318;52.390;9.754;2022-07-04T09:01:03;3.05;;;0.98;;
30533;SDS011;17318;52.390;9.754;2022-07-04T09:03:45;3.58;;;0.77;;
30533;SDS011;17318;52.390;9.754;2022-07-04T09:06:11;1.73;;;0.73;;
30533;SDS011;17318;52.390;9.754;2022-07-04T09:08:38;2.33;;;0.80;;
30533;SDS011;17318;52.390;9.754;2022-07-04T09:11:04;2.40;;;0.70;;
30533;SDS011;17318;52.390;9.754;2022-07-04T09:13:31;1.17;;;0.52;;
30533;SDS011;17318;52.390;9.754;2022-07-04T09:15:57;2.58;;;0.68;;
30533;SDS011;17318;52.390;9.754;2022-07-04T09:18:27;4.88;;;1.10;;
30533;SDS011;17318;52.390;9.754;2022-07-04T09:20:56;3.45;;;1.10;;
30533;SDS011;17318;52.390;9.754;2022-07-04T09:23:24;1.63;;;0.70;;
30533;SDS011;17318;52.390;9.754;2022-07-04T09:28:39;1.42;;;0.40;;
30533;SDS011;17318;52.390;9.754;2022-07-04T09:31:16;1.63;;;0.77;;
30533;SDS011;17318;52.390;9.754;2022-07-04T09:36:26;1.58;;;0.55;;
30533;SDS011;17318;52.390;9.754;2022-07-04T09:39:05;3.05;;;0.80;;
30533;SDS011;17318;52.390;9.754;2022-07-04T09:41:59;2.95;;;0.65;;
30533;SDS011;17318;52.390;9.754;2022-07-04T09:44:26;1.60;;;0.70;;
30533;SDS011;17318;52.390;9.754;2022-07-04T09:46:54;1.40;;;0.52;;
30533;SDS011;17318;52.390;9.754;2022-07-04T09:49:22;4.05;;;0.75;;
30533;SDS011;17318;52.390;9.754;2022-07-04T09:51:49;3.85;;;0.68;;
30533;SDS011;17318;52.390;9.754;2022-07-04T09:54:23;6.55;;;1.05;;
30533;SDS011;17318;52.390;9.754;2022-07-04T09:56:55;2.88;;;0.90;;
30533;SDS011;17318;52.390;9.754;2022-07-04T09:59:22;5.13;;;1.95;;
30533;SDS011;17318;52.390;9.754;2022-07-04T10:01:49;3.13;;;0.85;;
30533;SDS011;17318;52.390;9.754;2022-07-04T10:04:15;3.40;;;0.63;;
30533;SDS011;17318;52.390;9.754;2022-07-04T10:06:41;0.47;;;0.45;;
30533;SDS011;17318;52.390;9.754;2022-07-04T10:09:13;5.30;;;1.00;;
30533;SDS011;17318;52.390;9.754;2022-07-04T10:11:40;3.78;;;0.75;;
30533;SDS011;17318;52.390;9.754;2022-07-04T10:14:08;2.17;;;0.85;;
30533;SDS011;17318;52.390;9.754;2022-07-04T10:16:35;6.45;;;1.20;;
30533;SDS011;17318;52.390;9.754;2022-07-04T10:21:29;2.15;;;0.68;;
30533;SDS011;17318;52.390;9.754;2022-07-04T10:23:55;6.20;;;0.60;;
30533;SDS011;17318;52.390;9.754;2022-07-04T10:26:21;2.03;;;0.63;;
30533;SDS011;17318;52.390;9.754;2022-07-04T10:28:50;5.63;;;1.00;;
30533;SDS011;17318;52.390;9.754;2022-07-04T10:31:17;3.50;;;0.55;;
30533;SDS011;17318;52.390;9.754;2022-07-04T10:33:45;1.67;;;0.70;;
30533;SDS011;17318;52.390;9.754;2022-07-04T10:36:21;3.30;;;0.80;;
30533;SDS011;17318;52.390;9.754;2022-07-04T10:38:52;1.25;;;0.50;;
30533;SDS011;17318;52.390;9.754;2022-07-04T10:41:19;1.67;;;0.50;;
30533;SDS011;17318;52.390;9.754;2022-07-04T10:43:53;0.40;;;0.40;;
30533;SDS011;17318;52.390;9.754;2022-07-04T10:46:22;1.52;;;0.60;;
30533;SDS011;17318;52.390;9.754;2022-07-04T10:48:53;1.00;;;0.68;;
30533;SDS011;17318;52.390;9.754;2022-07-04T10:51:35;2.17;;;0.63;;
30533;SDS011;17318;52.390;9.754;2022-07-04T10:54:07;4.78;;;0.82;;
30533;SDS011;17318;52.390;9.754;2022-07-04T10:56:43;1.02;;;0.52;;
30533;SDS011;17318;52.390;9.754;2022-07-04T10:59:29;2.63;;;0.70;;
30533;SDS011;17318;52.390;9.754;2022-07-04T11:07:21;2.17;;;0.50;;
30533;SDS011;17318;52.390;9.754;2022-07-04T11:10:18;4.63;;;0.90;;
30533;SDS011;17318;52.390;9.754;2022-07-04T11:18:00;0.80;;;0.50;;
30533;SDS011;17318;52.390;9.754;2022-07-04T11:20:30;1.83;;;0.73;;
30533;SDS011;17318;52.390;9.754;2022-07-04T11:25:33;4.90;;;0.73;;
30533;SDS011;17318;52.390;9.754;2022-07-04T11:28:17;3.80;;;0.73;;
30533;SDS011;17318;52.390;9.754;2022-07-04T11:30:51;4.07;;;1.08;;
30533;SDS011;17318;52.390;9.754;2022-07-04T11:33:19;1.77;;;0.60;;
30533;SDS011;17318;52.390;9.754;2022-07-04T11:36:00;2.92;;;0.60;;
30533;SDS011;17318;52.390;9.754;2022-07-04T11:38:49;4.72;;;0.70;;
30533;SDS011;17318;52.390;9.754;2022-07-04T11:41:19;4.40;;;0.63;;
30533;SDS011;17318;52.390;9.754;2022-07-04T11:44:14;1.25;;;0.50;;
30533;SDS011;17318;52.390;9.754;2022-07-04T11:47:11;5.72;;;1.65;;
30533;SDS011;17318;52.390;9.754;2022-07-04T11:49:43;5.75;;;1.00;;
30533;SDS011;17318;52.390;9.754;2022-07-04T11:52:38;3.08;;;0.55;;
30533;SDS011;17318;52.390;9.754;2022-07-04T11:55:09;2.13;;;0.82;;
30533;SDS011;17318;52.390;9.754;2022-07-04T11:57:37;2.05;;;0.75;;
30533;SDS011;17318;52.390;9.754;2022-07-04T12:00:04;2.40;;;1.40;;
30533;SDS011;17318;52.390;9.754;2022-07-04T12:02:31;1.05;;;0.40;;
30533;SDS011;17318;52.390;9.754;2022-07-04T12:04:57;0.40;;;0.40;;
30533;SDS011;17318;52.390;9.754;2022-07-04T12:07:24;1.15;;;0.40;;
30533;SDS011;17318;52.390;9.754;2022-07-04T12:09:52;2.08;;;0.68;;
30533;SDS011;17318;52.390;9.754;2022-07-04T12:12:19;3.03;;;0.43;;
30533;SDS011;17318;52.390;9.754;2022-07-04T12:14:58;2.25;;;0.50;;
30533;SDS011;17318;52.390;9.754;2022-07-04T12:17:28;1.38;;;0.50;;
30533;SDS011;17318;52.390;9.754;2022-07-04T12:19:58;2.35;;;0.50;;
30533;SDS011;17318;52.390;9.754;2022-07-04T12:25:03;3.45;;;0.50;;
30533;SDS011;17318;52.390;9.754;2022-07-04T12:27:31;1.45;;;0.60;;
30533;SDS011;17318;52.390;9.754;2022-07-04T12:29:57;2.10;;;0.50;;
30533;SDS011;17318;52.390;9.754;2022-07-04T12:32:31;8.68;;;0.60;;
30533;SDS011;17318;52.390;9.754;2022-07-04T12:35:09;2.15;;;0.50;;
30533;SDS011;17318;52.390;9.754;2022-07-04T12:37:34;2.42;;;0.73;;
30533;SDS011;17318;52.390;9.754;2022-07-04T12:40:09;2.25;;;0.90;;
30533;SDS011;17318;52.390;9.754;2022-07-04T12:42:35;1.77;;;0.57;;
30533;SDS011;17318;52.390;9.754;2022-07-04T12:45:06;1.33;;;0.70;;
30533;SDS011;17318;52.390;9.754;2022-07-04T12:47:32;4.50;;;0.70;;
30533;SDS011;17318;52.390;9.754;2022-07-04T12:49:58;5.75;;;0.98;;
30533;SDS011;17318;52.390;9.754;2022-07-04T12:52:26;3.20;;;0.82;;
30533;SDS011;17318;52.390;9.754;2022-07-04T12:55:05;4.43;;;1.75;;
30533;SDS011;17318;52.390;9.754;2022-07-04T12:57:35;1.38;;;0.60;;
30533;SDS011;17318;52.390;9.754;2022-07-04T13:00:01;5.85;;;0.85;;
30533;SDS011;17318;52.390;9.754;2022-07-04T13:02:29;4.93;;;0.95;;
30533;SDS011;17318;52.390;9.754;2022-07-04T13:04:55;3.97;;;0.65;;
30533;SDS011;17318;52.390;9.754;2022-07-04T13:07:22;2.20;;;0.50;;
30533;SDS011;17318;52.390;9.754;2022-07-04T13:09:48;4.72;;;1.10;;
30533;SDS011;17318;52.390;9.754;2022-07-04T13:12:13;4.15;;;1.10;;
30533;SDS011;17318;52.390;9.754;2022-07-04T13:14:55;1.52;;;0.70;;
30533;SDS011;17318;52.390;9.754;2022-07-04T13:19:49;2.72;;;0.40;;
30533;SDS011;17318;52.390;9.754;2022-07-04T13:22:17;2.60;;;0.50;;
30533;SDS011;17318;52.390;9.754;2022-07-04T13:24:44;1.65;;;0.60;;
30533;SDS011;17318;52.390;9.754;2022-07-04T13:27:10;3.08;;;0.50;;
30533;SDS011;17318;52.390;9.754;2022-07-04T13:29:37;1.15;;;0.50;;
30533;SDS011;17318;52.390;9.754;2022-07-04T13:32:03;4.28;;;0.68;;
30533;SDS011;17318;52.390;9.754;2022-07-04T13:34:29;2.20;;;1.10;;
30533;SDS011;17318;52.390;9.754;2022-07-04T13:36:55;1.70;;;1.10;;
30533;SDS011;17318;52.390;9.754;2022-07-04T13:39:22;2.92;;;1.20;;
30533;SDS011;17318;52.390;9.754;2022-07-04T13:41:48;6.85;;;2.17;;
30533;SDS011;17318;52.390;9.754;2022-07-04T13:44:14;0.90;;;0.50;;
30533;SDS011;17318;52.390;9.754;2022-07-04T13:46:41;2.45;;;0.50;;
30533;SDS011;17318;52.390;9.754;2022-07-04T13:49:07;2.60;;;0.75;;
30533;SDS011;17318;52.390;9.754;2022-07-04T13:51:34;1.88;;;0.60;;
30533;SDS011;17318;52.390;9.754;2022-07-04T13:54:01;0.65;;;0.47;;
30533;SDS011;17318;52.390;9.754;2022-07-04T13:56:27;1.27;;;0.70;;
30533;SDS011;17318;52.390;9.754;2022-07-04T13:58:53;1.90;;;0.82;;
30533;SDS011;17318;52.390;9.754;2022-07-04T14:01:19;1.05;;;0.50;;
30533;SDS011;17318;52.390;9.754;2022-07-04T14:03:46;3.78;;;0.60;;
30533;SDS011;17318;52.390;9.754;2022-07-04T14:06:16;1.88;;;0.70;;
30533;SDS011;17318;52.390;9.754;2022-07-04T14:08:45;3.80;;;0.90;;
30533;SDS011;17318;52.390;9.754;2022-07-04T14:11:11;1.42;;;0.60;;
30533;SDS011;17318;52.390;9.754;2022-07-04T14:13:37;3.50;;;0.70;;
30533;SDS011;17318;52.390;9.754;2022-07-04T14:16:04;1.85;;;0.70;;
30533;SDS011;17318;52.390;9.754;2022-07-04T14:18:31;3.13;;;0.70;;
30533;SDS011;17318;52.390;9.754;2022-07-04T14:20:58;2.15;;;0.73;;
30533;SDS011;17318;52.390;9.754;2022-07-04T14:23:23;7.88;;;1.10;;
30533;SDS011;17318;52.390;9.754;2022-07-04T14:26:08;1.75;;;0.73;;
30533;SDS011;17318;52.390;9.754;2022-07-04T14:28:36;3.03;;;0.90;;
30533;SDS011;17318;52.390;9.754;2022-07-04T14:31:06;1.35;;;0.57;;
30533;SDS011;17318;52.390;9.754;2022-07-04T14:33:32;2.63;;;0.73;;
30533;SDS011;17318;52.390;9.754;2022-07-04T14:35:59;2.83;;;0.50;;
30533;SDS011;17318;52.390;9.754;2022-07-04T14:38:25;1.35;;;0.65;;
30533;SDS011;17318;52.390;9.754;2022-07-04T14:40:51;1.98;;;0.55;;
30533;SDS011;17318;52.390;9.754;2022-07-04T14:43:17;0.98;;;0.60;;
30533;SDS011;17318;52.390;9.754;2022-07-04T14:45:43;0.75;;;0.50;;
30533;SDS011;17318;52.390;9.754;2022-07-04T14:48:09;1.85;;;0.63;;
30533;SDS011;17318;52.390;9.754;2022-07-04T14:50:35;3.47;;;1.30;;
30533;SDS011;17318;52.390;9.754;2022-07-04T14:53:01;1.70;;;0.77;;
30533;SDS011;17318;52.390;9.754;2022-07-04T14:55:26;2.08;;;0.65;;
30533;SDS011;17318;52.390;9.754;2022-07-04T14:57:52;9.82;;;1.45;;
30533;SDS011;17318;52.390;9.754;2022-07-04T15:00:18;1.60;;;0.57;;
30533;SDS011;17318;52.390;9.754;2022-07-04T15:02:43;1.85;;;0.60;;
30533;SDS011;17318;52.390;9.754;2022-07-04T15:05:11;5.07;;;0.70;;
30533;SDS011;17318;52.390;9.754;2022-07-04T15:07:37;3.80;;;0.68;;
30533;SDS011;17318;52.390;9.754;2022-07-04T15:10:04;4.20;;;1.08;;
30533;SDS011;17318;52.390;9.754;2022-07-04T15:12:32;4.47;;;0.85;;
30533;SDS011;17318;52.390;9.754;2022-07-04T15:15:01;1.95;;;0.68;;
30533;SDS011;17318;52.390;9.754;2022-07-04T15:17:27;2.33;;;0.80;;